sensor_id;sensor_type;location;lat;lon;timestamp;temperature;humidity
13229;DHT22;6680;53.220;10.402;2023-07-20T00:00:45;13.20;99.90
13229;DHT22;6680;53.220;10.402;2023-07-20T00:03:13;13.20;99.90
13229;DHT22;6680;53.220;10.402;2023-07-20T00:05:42;13.20;99.90
13229;DHT22;6680;53.220;10.402;2023-07-20T00:08:09;13.10;99.90
13229;DHT22;6680;53.220;10.402;2023-07-20T00:10:37;13.00;99.90
13229;DHT22;6680;53.220;10.402;2023-07-20T00:13:04;13.00;99.90
13229;DHT22;6680;53.220;10.402;2023-07-20T00:15:31;13.00;99.90
13229;DHT22;6680;53.220;10.402;2023-07-20T00:17:58;13.00;99.90
13229;DHT22;6680;53.220;10.402;2023-07-20T00:20:25;12.90;99.90
13229;DHT22;6680;53.220;10.402;2023-07-20T00:22:51;12.80;99.90
13229;DHT22;6680;53.220;10.402;2023-07-20T00:25:20;12.90;99.90
13229;DHT22;6680;53.220;10.402;2023-07-20T00:27:48;12.90;99.90
13229;DHT22;6680;53.220;10.402;2023-07-20T00:30:15;12.90;99.90
13229;DHT22;6680;53.220;10.402;2023-07-20T00:32:42;12.70;99.90
13229;DHT22;6680;53.220;10.402;2023-07-20T00:35:09;13.00;99.90
13229;DHT22;6680;53.220;10.402;2023-07-20T00:37:36;12.90;99.90
13229;DHT22;6680;53.220;10.402;2023-07-20T00:40:04;12.90;99.90
13229;DHT22;6680;53.220;10.402;2023-07-20T00:42:33;12.90;99.90
13229;DHT22;6680;53.220;10.402;2023-07-20T00:45:01;12.90;99.90
13229;DHT22;6680;53.220;10.402;2023-07-20T00:47:28;12.80;99.90
13229;DHT22;6680;53.220;10.402;2023-07-20T00:49:54;12.80;99.90
13229;DHT22;6680;53.220;10.402;2023-07-20T00:52:23;12.80;99.90
13229;DHT22;6680;53.220;10.402;2023-07-20T00:54:51;12.80;99.90
13229;DHT22;6680;53.220;10.402;2023-07-20T00:57:22;12.80;99.90
13229;DHT22;6680;53.220;10.402;2023-07-20T00:59:50;12.70;99.90
13229;DHT22;6680;53.220;10.402;2023-07-20T01:02:18;12.70;99.90
13229;DHT22;6680;53.220;10.402;2023-07-20T01:04:45;12.70;99.90
13229;DHT22;6680;53.220;10.402;2023-07-20T01:07:14;12.70;99.90
13229;DHT22;6680;53.220;10.402;2023-07-20T01:09:46;12.70;99.90
13229;DHT22;6680;53.220;10.402;2023-07-20T01:12:22;12.70;99.90
13229;DHT22;6680;53.220;10.402;2023-07-20T01:14:49;12.70;99.90
13229;DHT22;6680;53.220;10.402;2023-07-20T01:17:17;12.80;99.90
13229;DHT22;6680;53.220;10.402;2023-07-20T01:19:44;12.80;99.90
13229;DHT22;6680;53.220;10.402;2023-07-20T01:22:23;12.90;99.90
13229;DHT22;6680;53.220;10.402;2023-07-20T01:25:21;13.00;99.90
13229;DHT22;6680;53.220;10.402;2023-07-20T01:31:19;14.10;99.90
13229;DHT22;6680;53.220;10.402;2023-07-20T01:33:48;13.20;99.90
13229;DHT22;6680;53.220;10.402;2023-07-20T01:36:16;13.20;99.90
13229;DHT22;6680;53.220;10.402;2023-07-20T01:38:44;13.30;99.90
13229;DHT22;6680;53.220;10.402;2023-07-20T01:41:11;13.40;99.90
13229;DHT22;6680;53.220;10.402;2023-07-20T01:43:38;13.40;99.90
13229;DHT22;6680;53.220;10.402;2023-07-20T01:46:05;13.50;99.90
13229;DHT22;6680;53.220;10.402;2023-07-20T01:48:33;13.60;99.90
13229;DHT22;6680;53.220;10.402;2023-07-20T01:51:00;13.60;99.90
13229;DHT22;6680;53.220;10.402;2023-07-20T01:53:26;13.60;99.90
13229;DHT22;6680;53.220;10.402;2023-07-20T01:55:53;13.60;99.90
13229;DHT22;6680;53.220;10.402;2023-07-20T01:58:20;13.60;99.90
13229;DHT22;6680;53.220;10.402;2023-07-20T02:00:47;13.60;99.90
13229;DHT22;6680;53.220;10.402;2023-07-20T02:03:13;13.60;99.90
13229;DHT22;6680;53.220;10.402;2023-07-20T02:05:43;13.60;99.90
13229;DHT22;6680;53.220;10.402;2023-07-20T02:08:10;13.70;99.90
13229;DHT22;6680;53.220;10.402;2023-07-20T02:10:37;13.70;99.90
13229;DHT22;6680;53.220;10.402;2023-07-20T02:13:04;13.70;99.90
13229;DHT22;6680;53.220;10.402;2023-07-20T02:15:30;13.70;99.90
13229;DHT22;6680;53.220;10.402;2023-07-20T02:17:57;13.60;99.90
13229;DHT22;6680;53.220;10.402;2023-07-20T02:20:24;13.60;99.90
13229;DHT22;6680;53.220;10.402;2023-07-20T02:22:52;13.50;99.90
13229;DHT22;6680;53.220;10.402;2023-07-20T02:25:19;13.60;99.90
13229;DHT22;6680;53.220;10.402;2023-07-20T02:27:45;13.60;99.90
13229;DHT22;6680;53.220;10.402;2023-07-20T02:30:12;13.60;99.90
13229;DHT22;6680;53.220;10.402;2023-07-20T02:32:39;13.30;99.90
13229;DHT22;6680;53.220;10.402;2023-07-20T02:35:06;13.60;99.90
13229;DHT22;6680;53.220;10.402;2023-07-20T02:37:33;13.60;99.90
13229;DHT22;6680;53.220;10.402;2023-07-20T02:40:01;13.70;99.90
13229;DHT22;6680;53.220;10.402;2023-07-20T02:42:29;13.70;99.90
13229;DHT22;6680;53.220;10.402;2023-07-20T02:44:56;13.70;99.90
13229;DHT22;6680;53.220;10.402;2023-07-20T02:47:22;13.80;99.90
13229;DHT22;6680;53.220;10.402;2023-07-20T02:49:49;13.80;99.90
13229;DHT22;6680;53.220;10.402;2023-07-20T02:52:16;13.80;99.90
13229;DHT22;6680;53.220;10.402;2023-07-20T02:54:43;13.70;99.90
13229;DHT22;6680;53.220;10.402;2023-07-20T02:57:11;13.70;99.90
13229;DHT22;6680;53.220;10.402;2023-07-20T02:59:38;13.80;99.90
13229;DHT22;6680;53.220;10.402;2023-07-20T03:02:05;13.80;99.90
13229;DHT22;6680;53.220;10.402;2023-07-20T03:04:35;13.80;99.90
13229;DHT22;6680;53.220;10.402;2023-07-20T03:07:04;13.80;99.90
13229;DHT22;6680;53.220;10.402;2023-07-20T03:09:30;13.80;99.90
13229;DHT22;6680;53.220;10.402;2023-07-20T03:11:57;13.90;99.90
13229;DHT22;6680;53.220;10.402;2023-07-20T03:14:25;13.80;99.90
13229;DHT22;6680;53.220;10.402;2023-07-20T03:16:52;13.90;99.90
13229;DHT22;6680;53.220;10.402;2023-07-20T03:19:19;13.80;99.90
13229;DHT22;6680;53.220;10.402;2023-07-20T03:21:45;13.80;99.90
13229;DHT22;6680;53.220;10.402;2023-07-20T03:24:12;13.80;99.90
13229;DHT22;6680;53.220;10.402;2023-07-20T03:26:39;13.80;99.90
13229;DHT22;6680;53.220;10.402;2023-07-20T03:29:05;13.90;99.90
13229;DHT22;6680;53.220;10.402;2023-07-20T03:31:33;13.80;99.90
13229;DHT22;6680;53.220;10.402;2023-07-20T03:34:00;13.80;99.90
13229;DHT22;6680;53.220;10.402;2023-07-20T03:36:26;13.80;99.90
13229;DHT22;6680;53.220;10.402;2023-07-20T03:38:53;13.80;99.90
13229;DHT22;6680;53.220;10.402;2023-07-20T03:41:20;13.90;99.90
13229;DHT22;6680;53.220;10.402;2023-07-20T03:43:47;13.90;99.90
13229;DHT22;6680;53.220;10.402;2023-07-20T03:46:14;13.90;99.90
13229;DHT22;6680;53.220;10.402;2023-07-20T03:48:42;13.90;99.90
13229;DHT22;6680;53.220;10.402;2023-07-20T03:51:08;14.00;99.90
13229;DHT22;6680;53.220;10.402;2023-07-20T03:53:35;13.90;99.90
13229;DHT22;6680;53.220;10.402;2023-07-20T03:56:02;14.00;99.90
13229;DHT22;6680;53.220;10.402;2023-07-20T03:58:29;14.10;99.90
13229;DHT22;6680;53.220;10.402;2023-07-20T04:00:57;14.10;99.90
13229;DHT22;6680;53.220;10.402;2023-07-20T04:03:24;14.10;99.90
13229;DHT22;6680;53.220;10.402;2023-07-20T04:05:54;14.20;99.90
13229;DHT22;6680;53.220;10.402;2023-07-20T04:08:23;14.10;99.90
13229;DHT22;6680;53.220;10.402;2023-07-20T04:10:50;14.10;99.90
13229;DHT22;6680;53.220;10.402;2023-07-20T04:13:17;14.20;99.90
13229;DHT22;6680;53.220;10.402;2023-07-20T04:15:44;14.20;99.90
13229;DHT22;6680;53.220;10.402;2023-07-20T04:18:10;14.30;99.90
13229;DHT22;6680;53.220;10.402;2023-07-20T04:20:37;14.20;99.90
13229;DHT22;6680;53.220;10.402;2023-07-20T04:23:05;14.30;99.90
13229;DHT22;6680;53.220;10.402;2023-07-20T04:25:32;14.30;99.90
13229;DHT22;6680;53.220;10.402;2023-07-20T04:28:04;14.30;99.90
13229;DHT22;6680;53.220;10.402;2023-07-20T04:30:34;14.30;99.90
13229;DHT22;6680;53.220;10.402;2023-07-20T04:33:00;14.30;99.90
13229;DHT22;6680;53.220;10.402;2023-07-20T04:35:45;14.40;99.90
13229;DHT22;6680;53.220;10.402;2023-07-20T04:38:13;14.40;99.90
13229;DHT22;6680;53.220;10.402;2023-07-20T04:40:41;14.40;99.90
13229;DHT22;6680;53.220;10.402;2023-07-20T04:43:07;14.50;99.90
13229;DHT22;6680;53.220;10.402;2023-07-20T04:45:34;14.60;99.90
13229;DHT22;6680;53.220;10.402;2023-07-20T04:48:01;14.70;99.90
13229;DHT22;6680;53.220;10.402;2023-07-20T04:50:28;14.80;99.90
13229;DHT22;6680;53.220;10.402;2023-07-20T04:52:54;14.90;99.90
13229;DHT22;6680;53.220;10.402;2023-07-20T04:55:22;14.90;99.90
13229;DHT22;6680;53.220;10.402;2023-07-20T04:57:49;14.90;99.90
13229;DHT22;6680;53.220;10.402;2023-07-20T05:00:16;14.90;99.90
13229;DHT22;6680;53.220;10.402;2023-07-20T05:02:43;14.80;99.90
13229;DHT22;6680;53.220;10.402;2023-07-20T05:05:10;15.00;99.90
13229;DHT22;6680;53.220;10.402;2023-07-20T05:07:37;14.90;99.90
13229;DHT22;6680;53.220;10.402;2023-07-20T05:10:04;14.90;99.90
13229;DHT22;6680;53.220;10.402;2023-07-20T05:12:32;15.00;99.90
13229;DHT22;6680;53.220;10.402;2023-07-20T05:14:59;15.00;99.90
13229;DHT22;6680;53.220;10.402;2023-07-20T05:17:26;15.10;99.90
13229;DHT22;6680;53.220;10.402;2023-07-20T05:19:52;15.20;99.90
13229;DHT22;6680;53.220;10.402;2023-07-20T05:22:19;15.20;99.90
13229;DHT22;6680;53.220;10.402;2023-07-20T05:24:46;15.30;99.90
13229;DHT22;6680;53.220;10.402;2023-07-20T05:27:12;15.40;99.90
13229;DHT22;6680;53.220;10.402;2023-07-20T05:29:44;15.40;99.90
13229;DHT22;6680;53.220;10.402;2023-07-20T05:32:11;15.40;99.90
13229;DHT22;6680;53.220;10.402;2023-07-20T05:34:38;15.50;99.90
13229;DHT22;6680;53.220;10.402;2023-07-20T05:37:05;15.70;99.90
13229;DHT22;6680;53.220;10.402;2023-07-20T05:39:32;15.80;99.90
13229;DHT22;6680;53.220;10.402;2023-07-20T05:41:59;16.00;99.90
13229;DHT22;6680;53.220;10.402;2023-07-20T05:44:26;16.10;99.90
13229;DHT22;6680;53.220;10.402;2023-07-20T05:46:54;16.20;99.90
13229;DHT22;6680;53.220;10.402;2023-07-20T05:49:20;16.30;99.90
13229;DHT22;6680;53.220;10.402;2023-07-20T05:51:47;16.20;99.90
13229;DHT22;6680;53.220;10.402;2023-07-20T05:54:14;16.20;99.90
13229;DHT22;6680;53.220;10.402;2023-07-20T05:56:40;16.20;99.90
13229;DHT22;6680;53.220;10.402;2023-07-20T05:59:07;16.30;99.90
13229;DHT22;6680;53.220;10.402;2023-07-20T06:01:34;16.30;99.90
13229;DHT22;6680;53.220;10.402;2023-07-20T06:04:02;16.40;99.90
13229;DHT22;6680;53.220;10.402;2023-07-20T06:06:29;16.40;99.90
13229;DHT22;6680;53.220;10.402;2023-07-20T06:08:56;16.40;99.90
13229;DHT22;6680;53.220;10.402;2023-07-20T06:11:22;16.30;99.90
13229;DHT22;6680;53.220;10.402;2023-07-20T06:13:49;16.30;99.90
13229;DHT22;6680;53.220;10.402;2023-07-20T06:16:16;16.40;99.90
13229;DHT22;6680;53.220;10.402;2023-07-20T06:18:43;16.50;99.90
13229;DHT22;6680;53.220;10.402;2023-07-20T06:21:12;16.60;99.90
13229;DHT22;6680;53.220;10.402;2023-07-20T06:23:38;16.60;99.90
13229;DHT22;6680;53.220;10.402;2023-07-20T06:26:06;16.70;99.90
13229;DHT22;6680;53.220;10.402;2023-07-20T06:28:32;16.80;99.90
13229;DHT22;6680;53.220;10.402;2023-07-20T06:31:00;16.90;99.90
13229;DHT22;6680;53.220;10.402;2023-07-20T06:33:26;17.00;99.90
13229;DHT22;6680;53.220;10.402;2023-07-20T06:35:52;17.20;99.90
13229;DHT22;6680;53.220;10.402;2023-07-20T06:38:20;17.10;99.90
13229;DHT22;6680;53.220;10.402;2023-07-20T06:40:48;17.20;99.90
13229;DHT22;6680;53.220;10.402;2023-07-20T06:43:15;17.40;99.90
13229;DHT22;6680;53.220;10.402;2023-07-20T06:45:42;17.60;99.90
13229;DHT22;6680;53.220;10.402;2023-07-20T06:48:09;17.60;99.90
13229;DHT22;6680;53.220;10.402;2023-07-20T06:50:36;17.70;99.90
13229;DHT22;6680;53.220;10.402;2023-07-20T06:53:02;17.80;99.90
13229;DHT22;6680;53.220;10.402;2023-07-20T06:55:30;17.80;99.90
13229;DHT22;6680;53.220;10.402;2023-07-20T06:57:57;17.90;99.90
13229;DHT22;6680;53.220;10.402;2023-07-20T07:00:24;17.90;99.90
13229;DHT22;6680;53.220;10.402;2023-07-20T07:02:50;17.80;99.90
13229;DHT22;6680;53.220;10.402;2023-07-20T07:05:17;17.80;99.90
13229;DHT22;6680;53.220;10.402;2023-07-20T07:07:44;17.60;99.90
13229;DHT22;6680;53.220;10.402;2023-07-20T07:10:11;17.50;99.90
13229;DHT22;6680;53.220;10.402;2023-07-20T07:12:39;17.60;99.90
13229;DHT22;6680;53.220;10.402;2023-07-20T07:15:07;17.40;99.90
13229;DHT22;6680;53.220;10.402;2023-07-20T07:17:34;17.40;99.90
13229;DHT22;6680;53.220;10.402;2023-07-20T07:20:00;17.40;99.90
13229;DHT22;6680;53.220;10.402;2023-07-20T07:22:27;17.40;99.90
13229;DHT22;6680;53.220;10.402;2023-07-20T07:24:54;17.40;99.90
13229;DHT22;6680;53.220;10.402;2023-07-20T07:27:21;17.40;99.90
13229;DHT22;6680;53.220;10.402;2023-07-20T07:29:49;17.60;99.90
13229;DHT22;6680;53.220;10.402;2023-07-20T07:32:16;17.80;99.90
13229;DHT22;6680;53.220;10.402;2023-07-20T07:34:44;17.80;99.90
13229;DHT22;6680;53.220;10.402;2023-07-20T07:37:12;17.80;99.90
13229;DHT22;6680;53.220;10.402;2023-07-20T07:39:39;17.60;99.90
13229;DHT22;6680;53.220;10.402;2023-07-20T07:42:06;17.50;99.90
13229;DHT22;6680;53.220;10.402;2023-07-20T07:44:32;17.60;99.90
13229;DHT22;6680;53.220;10.402;2023-07-20T07:47:00;17.80;99.90
13229;DHT22;6680;53.220;10.402;2023-07-20T07:49:27;17.80;99.90
13229;DHT22;6680;53.220;10.402;2023-07-20T07:51:54;17.90;99.90
13229;DHT22;6680;53.220;10.402;2023-07-20T07:54:21;18.00;99.90
13229;DHT22;6680;53.220;10.402;2023-07-20T07:56:47;18.10;99.90
13229;DHT22;6680;53.220;10.402;2023-07-20T07:59:14;18.00;99.90
13229;DHT22;6680;53.220;10.402;2023-07-20T08:01:41;18.00;99.90
13229;DHT22;6680;53.220;10.402;2023-07-20T08:04:09;18.00;99.90
13229;DHT22;6680;53.220;10.402;2023-07-20T08:06:36;18.10;99.90
13229;DHT22;6680;53.220;10.402;2023-07-20T08:09:02;18.20;99.90
13229;DHT22;6680;53.220;10.402;2023-07-20T08:11:29;18.30;99.90
13229;DHT22;6680;53.220;10.402;2023-07-20T08:13:59;18.50;99.90
13229;DHT22;6680;53.220;10.402;2023-07-20T08:16:26;18.50;99.90
13229;DHT22;6680;53.220;10.402;2023-07-20T08:18:52;18.60;99.90
13229;DHT22;6680;53.220;10.402;2023-07-20T08:21:20;18.80;99.90
13229;DHT22;6680;53.220;10.402;2023-07-20T08:23:47;18.80;99.90
13229;DHT22;6680;53.220;10.402;2023-07-20T08:26:13;19.00;99.90
13229;DHT22;6680;53.220;10.402;2023-07-20T08:28:42;19.20;99.90
13229;DHT22;6680;53.220;10.402;2023-07-20T08:31:08;19.30;99.90
13229;DHT22;6680;53.220;10.402;2023-07-20T08:33:35;19.20;99.90
13229;DHT22;6680;53.220;10.402;2023-07-20T08:36:02;19.00;99.90
13229;DHT22;6680;53.220;10.402;2023-07-20T08:38:30;19.00;99.90
13229;DHT22;6680;53.220;10.402;2023-07-20T08:40:57;18.70;99.90
13229;DHT22;6680;53.220;10.402;2023-07-20T08:43:25;18.60;99.90
13229;DHT22;6680;53.220;10.402;2023-07-20T08:45:54;18.40;99.90
13229;DHT22;6680;53.220;10.402;2023-07-20T08:48:21;18.40;99.90
13229;DHT22;6680;53.220;10.402;2023-07-20T08:50:51;18.60;99.90
13229;DHT22;6680;53.220;10.402;2023-07-20T08:53:18;18.70;99.90
13229;DHT22;6680;53.220;10.402;2023-07-20T08:55:49;18.80;99.90
13229;DHT22;6680;53.220;10.402;2023-07-20T08:58:17;19.00;99.90
13229;DHT22;6680;53.220;10.402;2023-07-20T09:00:44;19.10;99.90
13229;DHT22;6680;53.220;10.402;2023-07-20T09:03:11;19.20;99.90
13229;DHT22;6680;53.220;10.402;2023-07-20T09:05:38;19.10;99.90
13229;DHT22;6680;53.220;10.402;2023-07-20T09:08:06;19.00;99.90
13229;DHT22;6680;53.220;10.402;2023-07-20T09:10:33;18.70;99.90
13229;DHT22;6680;53.220;10.402;2023-07-20T09:13:01;18.60;99.90
13229;DHT22;6680;53.220;10.402;2023-07-20T09:15:29;18.50;99.90
13229;DHT22;6680;53.220;10.402;2023-07-20T09:17:56;18.50;99.90
13229;DHT22;6680;53.220;10.402;2023-07-20T09:20:22;18.50;99.90
13229;DHT22;6680;53.220;10.402;2023-07-20T09:22:50;18.60;99.90
13229;DHT22;6680;53.220;10.402;2023-07-20T09:25:18;18.60;99.90
13229;DHT22;6680;53.220;10.402;2023-07-20T09:27:47;18.80;99.90
13229;DHT22;6680;53.220;10.402;2023-07-20T09:30:15;18.90;99.90
13229;DHT22;6680;53.220;10.402;2023-07-20T09:32:44;19.30;99.90
13229;DHT22;6680;53.220;10.402;2023-07-20T09:35:14;19.10;99.90
13229;DHT22;6680;53.220;10.402;2023-07-20T09:37:48;19.20;99.90
13229;DHT22;6680;53.220;10.402;2023-07-20T09:40:18;19.40;99.90
13229;DHT22;6680;53.220;10.402;2023-07-20T09:42:45;19.80;99.90
13229;DHT22;6680;53.220;10.402;2023-07-20T09:45:12;19.80;99.90
13229;DHT22;6680;53.220;10.402;2023-07-20T09:47:40;19.80;99.90
13229;DHT22;6680;53.220;10.402;2023-07-20T09:50:08;20.00;99.90
13229;DHT22;6680;53.220;10.402;2023-07-20T09:52:38;20.10;99.90
13229;DHT22;6680;53.220;10.402;2023-07-20T09:55:07;19.90;99.90
13229;DHT22;6680;53.220;10.402;2023-07-20T09:57:34;20.00;99.90
13229;DHT22;6680;53.220;10.402;2023-07-20T10:00:03;20.10;99.90
13229;DHT22;6680;53.220;10.402;2023-07-20T10:02:33;19.90;99.90
13229;DHT22;6680;53.220;10.402;2023-07-20T10:05:05;19.50;99.90
13229;DHT22;6680;53.220;10.402;2023-07-20T10:07:35;18.70;99.90
13229;DHT22;6680;53.220;10.402;2023-07-20T10:10:02;18.10;99.90
13229;DHT22;6680;53.220;10.402;2023-07-20T10:12:31;17.60;99.90
13229;DHT22;6680;53.220;10.402;2023-07-20T10:15:09;17.30;99.90
13229;DHT22;6680;53.220;10.402;2023-07-20T10:17:41;17.20;99.90
13229;DHT22;6680;53.220;10.402;2023-07-20T10:20:17;17.30;99.90
13229;DHT22;6680;53.220;10.402;2023-07-20T10:22:48;17.30;99.90
13229;DHT22;6680;53.220;10.402;2023-07-20T10:25:16;17.30;99.90
13229;DHT22;6680;53.220;10.402;2023-07-20T10:27:43;17.40;99.90
13229;DHT22;6680;53.220;10.402;2023-07-20T10:30:10;17.60;99.90
13229;DHT22;6680;53.220;10.402;2023-07-20T10:32:39;17.60;99.90
13229;DHT22;6680;53.220;10.402;2023-07-20T10:35:13;17.80;99.90
13229;DHT22;6680;53.220;10.402;2023-07-20T10:37:49;18.00;99.90
13229;DHT22;6680;53.220;10.402;2023-07-20T10:40:30;18.10;99.90
13229;DHT22;6680;53.220;10.402;2023-07-20T10:42:59;18.30;99.90
13229;DHT22;6680;53.220;10.402;2023-07-20T10:45:48;18.40;99.90
13229;DHT22;6680;53.220;10.402;2023-07-20T10:48:16;18.60;99.90
13229;DHT22;6680;53.220;10.402;2023-07-20T10:50:43;18.80;99.90
13229;DHT22;6680;53.220;10.402;2023-07-20T10:53:13;19.10;99.90
13229;DHT22;6680;53.220;10.402;2023-07-20T10:55:41;19.40;99.90
13229;DHT22;6680;53.220;10.402;2023-07-20T10:58:08;19.60;99.90
13229;DHT22;6680;53.220;10.402;2023-07-20T11:00:36;20.00;99.90
13229;DHT22;6680;53.220;10.402;2023-07-20T11:03:04;20.20;99.90
13229;DHT22;6680;53.220;10.402;2023-07-20T11:05:35;20.50;99.90
13229;DHT22;6680;53.220;10.402;2023-07-20T11:08:06;20.80;99.90
13229;DHT22;6680;53.220;10.402;2023-07-20T11:10:36;20.80;99.90
13229;DHT22;6680;53.220;10.402;2023-07-20T11:13:16;20.80;99.90
13229;DHT22;6680;53.220;10.402;2023-07-20T11:15:47;20.80;99.90
13229;DHT22;6680;53.220;10.402;2023-07-20T11:18:14;20.60;99.90
13229;DHT22;6680;53.220;10.402;2023-07-20T11:20:41;20.50;99.90
13229;DHT22;6680;53.220;10.402;2023-07-20T11:23:09;20.30;99.90
13229;DHT22;6680;53.220;10.402;2023-07-20T11:25:38;20.20;99.90
13229;DHT22;6680;53.220;10.402;2023-07-20T11:28:08;20.10;99.90
13229;DHT22;6680;53.220;10.402;2023-07-20T11:30:36;20.30;99.90
13229;DHT22;6680;53.220;10.402;2023-07-20T11:33:04;20.30;99.90
13229;DHT22;6680;53.220;10.402;2023-07-20T11:37:58;20.60;99.90
13229;DHT22;6680;53.220;10.402;2023-07-20T11:40:25;20.70;99.90
13229;DHT22;6680;53.220;10.402;2023-07-20T11:42:53;20.10;99.90
13229;DHT22;6680;53.220;10.402;2023-07-20T11:45:20;20.10;99.90
13229;DHT22;6680;53.220;10.402;2023-07-20T11:47:46;19.90;99.90
13229;DHT22;6680;53.220;10.402;2023-07-20T11:50:13;19.70;99.90
13229;DHT22;6680;53.220;10.402;2023-07-20T11:52:40;19.90;99.90
13229;DHT22;6680;53.220;10.402;2023-07-20T11:55:07;19.80;99.90
13229;DHT22;6680;53.220;10.402;2023-07-20T11:57:34;19.90;99.90
13229;DHT22;6680;53.220;10.402;2023-07-20T12:00:03;19.80;99.90
13229;DHT22;6680;53.220;10.402;2023-07-20T12:02:34;19.80;99.90
13229;DHT22;6680;53.220;10.402;2023-07-20T12:05:02;19.70;99.90
13229;DHT22;6680;53.220;10.402;2023-07-20T12:07:32;19.40;99.90
13229;DHT22;6680;53.220;10.402;2023-07-20T12:10:06;19.20;99.90
13229;DHT22;6680;53.220;10.402;2023-07-20T12:12:33;19.10;99.90
13229;DHT22;6680;53.220;10.402;2023-07-20T12:15:14;19.20;99.90
13229;DHT22;6680;53.220;10.402;2023-07-20T12:17:42;19.50;99.90
13229;DHT22;6680;53.220;10.402;2023-07-20T12:20:10;19.70;99.90
13229;DHT22;6680;53.220;10.402;2023-07-20T12:22:42;19.90;99.90
13229;DHT22;6680;53.220;10.402;2023-07-20T12:25:10;19.90;99.90
13229;DHT22;6680;53.220;10.402;2023-07-20T12:27:36;20.00;99.90
13229;DHT22;6680;53.220;10.402;2023-07-20T12:30:05;20.00;99.90
13229;DHT22;6680;53.220;10.402;2023-07-20T12:32:34;20.00;99.90
13229;DHT22;6680;53.220;10.402;2023-07-20T12:35:00;19.80;99.90
13229;DHT22;6680;53.220;10.402;2023-07-20T12:37:27;19.70;99.90
13229;DHT22;6680;53.220;10.402;2023-07-20T12:39:54;19.50;99.90
13229;DHT22;6680;53.220;10.402;2023-07-20T12:42:21;19.20;99.90
13229;DHT22;6680;53.220;10.402;2023-07-20T12:44:49;19.00;99.90
13229;DHT22;6680;53.220;10.402;2023-07-20T12:47:16;18.90;99.90
13229;DHT22;6680;53.220;10.402;2023-07-20T12:49:45;18.90;99.90
13229;DHT22;6680;53.220;10.402;2023-07-20T12:52:12;18.90;99.90
13229;DHT22;6680;53.220;10.402;2023-07-20T12:54:38;19.00;99.90
13229;DHT22;6680;53.220;10.402;2023-07-20T12:57:06;19.10;99.90
13229;DHT22;6680;53.220;10.402;2023-07-20T12:59:33;19.10;99.90
13229;DHT22;6680;53.220;10.402;2023-07-20T13:02:00;19.40;99.90
13229;DHT22;6680;53.220;10.402;2023-07-20T13:04:27;19.60;99.90
13229;DHT22;6680;53.220;10.402;2023-07-20T13:06:55;19.70;99.90
13229;DHT22;6680;53.220;10.402;2023-07-20T13:09:23;19.80;99.90
13229;DHT22;6680;53.220;10.402;2023-07-20T13:11:50;19.80;99.90
13229;DHT22;6680;53.220;10.402;2023-07-20T13:14:18;19.80;99.90
13229;DHT22;6680;53.220;10.402;2023-07-20T13:16:44;20.00;99.90
13229;DHT22;6680;53.220;10.402;2023-07-20T13:19:11;20.20;99.90
13229;DHT22;6680;53.220;10.402;2023-07-20T13:21:38;20.30;99.90
13229;DHT22;6680;53.220;10.402;2023-07-20T13:24:06;20.50;99.90
13229;DHT22;6680;53.220;10.402;2023-07-20T13:26:33;20.60;99.90
13229;DHT22;6680;53.220;10.402;2023-07-20T13:28:59;20.80;99.90
13229;DHT22;6680;53.220;10.402;2023-07-20T13:31:26;20.90;99.90
13229;DHT22;6680;53.220;10.402;2023-07-20T13:33:53;21.00;99.90
13229;DHT22;6680;53.220;10.402;2023-07-20T13:36:20;21.20;99.90
13229;DHT22;6680;53.220;10.402;2023-07-20T13:38:47;21.30;99.90
13229;DHT22;6680;53.220;10.402;2023-07-20T13:41:16;21.10;99.90
13229;DHT22;6680;53.220;10.402;2023-07-20T13:43:42;20.90;99.90
13229;DHT22;6680;53.220;10.402;2023-07-20T13:46:09;20.50;99.90
13229;DHT22;6680;53.220;10.402;2023-07-20T13:48:37;20.10;99.90
13229;DHT22;6680;53.220;10.402;2023-07-20T13:51:04;19.40;99.90
13229;DHT22;6680;53.220;10.402;2023-07-20T13:53:30;18.70;99.90
13229;DHT22;6680;53.220;10.402;2023-07-20T13:55:57;18.40;99.90
13229;DHT22;6680;53.220;10.402;2023-07-20T13:58:26;18.40;99.90
13229;DHT22;6680;53.220;10.402;2023-07-20T14:00:52;18.30;99.90
13229;DHT22;6680;53.220;10.402;2023-07-20T14:03:20;18.40;99.90
13229;DHT22;6680;53.220;10.402;2023-07-20T14:05:47;18.50;99.90
13229;DHT22;6680;53.220;10.402;2023-07-20T14:08:14;18.60;99.90
13229;DHT22;6680;53.220;10.402;2023-07-20T14:10:41;18.80;99.90
13229;DHT22;6680;53.220;10.402;2023-07-20T14:13:07;19.00;99.90
13229;DHT22;6680;53.220;10.402;2023-07-20T14:15:36;19.20;99.90
13229;DHT22;6680;53.220;10.402;2023-07-20T14:18:03;19.30;99.90
13229;DHT22;6680;53.220;10.402;2023-07-20T14:20:29;19.40;99.90
13229;DHT22;6680;53.220;10.402;2023-07-20T14:22:56;19.30;99.90
13229;DHT22;6680;53.220;10.402;2023-07-20T14:25:23;19.60;99.90
13229;DHT22;6680;53.220;10.402;2023-07-20T14:27:49;19.60;99.90
13229;DHT22;6680;53.220;10.402;2023-07-20T14:30:16;19.50;99.90
13229;DHT22;6680;53.220;10.402;2023-07-20T14:32:44;19.40;99.90
13229;DHT22;6680;53.220;10.402;2023-07-20T14:35:11;19.10;99.90
13229;DHT22;6680;53.220;10.402;2023-07-20T14:37:37;19.00;99.90
13229;DHT22;6680;53.220;10.402;2023-07-20T14:40:05;18.90;99.90
13229;DHT22;6680;53.220;10.402;2023-07-20T14:42:32;18.80;99.90
13229;DHT22;6680;53.220;10.402;2023-07-20T14:44:59;18.70;99.90
13229;DHT22;6680;53.220;10.402;2023-07-20T14:47:26;18.50;99.90
13229;DHT22;6680;53.220;10.402;2023-07-20T14:49:54;18.50;99.90
13229;DHT22;6680;53.220;10.402;2023-07-20T14:52:21;18.50;99.90
13229;DHT22;6680;53.220;10.402;2023-07-20T14:54:47;18.60;99.90
13229;DHT22;6680;53.220;10.402;2023-07-20T14:57:14;18.60;99.90
13229;DHT22;6680;53.220;10.402;2023-07-20T14:59:42;18.70;99.90
13229;DHT22;6680;53.220;10.402;2023-07-20T15:02:09;18.90;99.90
13229;DHT22;6680;53.220;10.402;2023-07-20T15:04:36;19.00;99.90
13229;DHT22;6680;53.220;10.402;2023-07-20T15:07:04;19.20;99.90
13229;DHT22;6680;53.220;10.402;2023-07-20T15:09:31;19.20;99.90
13229;DHT22;6680;53.220;10.402;2023-07-20T15:11:59;19.20;99.90
13229;DHT22;6680;53.220;10.402;2023-07-20T15:14:26;19.20;99.90
13229;DHT22;6680;53.220;10.402;2023-07-20T15:16:53;19.20;99.90
13229;DHT22;6680;53.220;10.402;2023-07-20T15:19:20;19.20;99.90
13229;DHT22;6680;53.220;10.402;2023-07-20T15:21:47;19.20;99.90
13229;DHT22;6680;53.220;10.402;2023-07-20T15:24:15;19.40;99.90
13229;DHT22;6680;53.220;10.402;2023-07-20T15:26:42;19.50;99.90
13229;DHT22;6680;53.220;10.402;2023-07-20T15:29:09;19.60;99.90
13229;DHT22;6680;53.220;10.402;2023-07-20T15:31:36;19.70;99.90
13229;DHT22;6680;53.220;10.402;2023-07-20T15:34:02;19.80;99.90
13229;DHT22;6680;53.220;10.402;2023-07-20T15:36:29;19.90;99.90
13229;DHT22;6680;53.220;10.402;2023-07-20T15:38:56;19.90;99.90